createdAt,value
2023-01-19T00:00:39.081Z,97061.41
2023-01-19T00:03:05.559Z,97057.19
2023-01-19T00:05:33.789Z,97060.31
2023-01-19T00:08:15.049Z,97062.59
2023-01-19T00:10:42.387Z,97063.59
2023-01-19T00:13:08.793Z,97061.03
2023-01-19T00:15:35.347Z,97062.13
2023-01-19T00:18:01.610Z,97058.34
2023-01-19T00:20:27.921Z,97063.66
2023-01-19T00:22:54.203Z,97058.88
2023-01-19T00:25:20.475Z,97066.72
2023-01-19T00:27:49.371Z,97076.28
2023-01-19T00:30:15.954Z,97080.31
2023-01-19T00:32:42.264Z,97090.75
2023-01-19T00:35:08.571Z,97093.31
2023-01-19T00:37:34.983Z,97101.97
2023-01-19T00:40:01.646Z,97103.72
2023-01-19T00:42:40.150Z,97104.00
2023-01-19T00:45:11.043Z,97103.75
2023-01-19T00:47:39.132Z,97098.31
2023-01-19T00:50:06.063Z,97110.13
2023-01-19T00:52:32.544Z,97108.59
2023-01-19T00:54:58.800Z,97115.56
2023-01-19T00:57:25.186Z,97123.94
2023-01-19T00:59:51.457Z,97123.78
2023-01-19T01:02:17.865Z,97118.41
2023-01-19T01:04:44.298Z,97125.63
2023-01-19T01:07:10.776Z,97120.44
2023-01-19T01:09:37.188Z,97113.66
2023-01-19T01:12:03.852Z,97109.16
2023-01-19T01:14:32.437Z,97111.41
2023-01-19T01:16:58.773Z,97105.72
2023-01-19T01:19:25.048Z,97109.00
2023-01-19T01:21:51.383Z,97112.75
2023-01-19T01:24:18.778Z,97124.66
2023-01-19T01:26:45.059Z,97123.84
2023-01-19T01:29:11.555Z,97123.75
2023-01-19T01:31:37.889Z,97127.13
2023-01-19T01:34:04.255Z,97130.50
2023-01-19T01:36:33.561Z,97136.31
2023-01-19T01:39:00.168Z,97129.06
2023-01-19T01:41:27.496Z,97122.31
2023-01-19T01:43:58.167Z,97131.03
2023-01-19T01:46:25.713Z,97124.84
2023-01-19T01:48:55.489Z,97123.47
2023-01-19T01:51:25.340Z,97120.09
2023-01-19T01:54:11.875Z,97130.66
2023-01-19T01:56:39.642Z,97136.19
2023-01-19T01:59:09.243Z,97138.19
2023-01-19T02:01:54.838Z,97139.66
2023-01-19T02:04:22.078Z,97137.28
2023-01-19T02:07:06.995Z,97143.38
2023-01-19T02:09:53.391Z,97149.66
2023-01-19T02:12:38.394Z,97148.63
2023-01-19T02:15:04.954Z,97147.22
2023-01-19T02:17:31.323Z,97143.28
2023-01-19T02:19:58.101Z,97136.81
2023-01-19T02:22:38.538Z,97142.03
2023-01-19T02:25:05.252Z,97137.81
2023-01-19T02:27:32.105Z,97136.59
2023-01-19T02:29:59.217Z,97141.03
2023-01-19T02:32:25.663Z,97142.78
2023-01-19T02:34:52.186Z,97140.56
2023-01-19T02:37:19.032Z,97144.53
2023-01-19T02:39:50.677Z,97153.69
2023-01-19T02:42:22.962Z,97150.44
2023-01-19T02:44:50.399Z,97153.91
2023-01-19T02:47:16.742Z,97146.22
2023-01-19T02:49:43.061Z,97142.78
2023-01-19T02:52:16.008Z,97148.47
2023-01-19T02:55:01.872Z,97158.41
2023-01-19T02:57:36.232Z,97162.34
2023-01-19T03:17:17.905Z,97177.41
2023-01-19T03:19:45.862Z,97181.06
2023-01-19T03:22:17.398Z,97188.06
2023-01-19T03:24:45.834Z,97183.00
2023-01-19T03:27:14.967Z,97178.28
2023-01-19T03:29:43.052Z,97169.91
2023-01-19T03:32:12.196Z,97168.19
2023-01-19T03:34:39.103Z,97181.22
2023-01-19T03:37:07.432Z,97184.22
2023-01-19T03:39:33.899Z,97188.25
2023-01-19T03:42:03.106Z,97195.72
2023-01-19T03:44:30.796Z,97195.72
2023-01-19T03:46:58.474Z,97189.34
2023-01-19T03:49:25.142Z,97190.59
2023-01-19T03:51:54.935Z,97188.16
2023-01-19T03:54:21.235Z,97188.19
2023-01-19T03:56:47.515Z,97188.72
2023-01-19T03:59:17.414Z,97197.56
2023-01-19T04:01:43.806Z,97205.53
2023-01-19T04:04:10.147Z,97213.69
2023-01-19T04:06:36.581Z,97204.75
2023-01-19T04:09:02.880Z,97213.47
2023-01-19T04:11:29.210Z,97206.53
2023-01-19T04:13:55.470Z,97201.28
2023-01-19T04:16:21.934Z,97191.13
2023-01-19T04:18:49.799Z,97209.25
2023-01-19T04:21:16.245Z,97202.34
2023-01-19T04:23:44.362Z,97201.81
2023-01-19T04:26:10.642Z,97202.28
2023-01-19T04:28:37.173Z,97206.53
2023-01-19T04:31:04.339Z,97192.44
2023-01-19T04:33:30.754Z,97213.47
2023-01-19T04:35:57.433Z,97203.81
2023-01-19T04:38:24.786Z,97199.34
2023-01-19T04:40:52.715Z,97193.38
2023-01-19T04:43:19.707Z,97201.75
2023-01-19T04:45:46.543Z,97206.25
2023-01-19T04:48:13.453Z,97206.47
2023-01-19T04:50:40.084Z,97208.72
2023-01-19T04:53:06.375Z,97209.94
2023-01-19T04:55:32.625Z,97196.59
2023-01-19T04:57:59.416Z,97200.75
2023-01-19T05:00:26.807Z,97201.75
2023-01-19T05:02:53.443Z,97199.31
2023-01-19T05:05:19.802Z,97201.75
2023-01-19T05:07:46.884Z,97200.75
2023-01-19T05:10:13.550Z,97201.97
2023-01-19T05:12:39.941Z,97201.47
2023-01-19T05:15:07.772Z,97194.50
2023-01-19T05:17:34.473Z,97193.53
2023-01-19T05:20:00.762Z,97189.31
2023-01-19T05:22:27.168Z,97188.06
2023-01-19T05:24:53.645Z,97191.97
2023-01-19T05:27:19.984Z,97182.09
2023-01-19T05:29:46.267Z,97183.81
2023-01-19T05:32:13.621Z,97186.75
2023-01-19T05:34:40.093Z,97185.97
2023-01-19T05:37:06.455Z,97189.38
2023-01-19T05:39:33.434Z,97187.72
2023-01-19T05:41:59.767Z,97190.72
2023-01-19T05:44:26.065Z,97190.44
2023-01-19T05:46:52.398Z,97193.69
2023-01-19T05:49:18.710Z,97185.41
2023-01-19T05:51:45.498Z,97194.25
2023-01-19T05:54:13.019Z,97184.41
2023-01-19T05:56:39.477Z,97193.09
2023-01-19T05:59:05.856Z,97190.50
2023-01-19T06:01:34.766Z,97201.09
2023-01-19T06:04:01.025Z,97194.38
2023-01-19T06:06:27.334Z,97194.34
2023-01-19T06:08:53.743Z,97196.38
2023-01-19T06:11:20.921Z,97192.59
2023-01-19T06:13:47.479Z,97198.50
2023-01-19T06:16:14.701Z,97207.72
2023-01-19T06:18:41.166Z,97203.53
2023-01-19T06:21:08.189Z,97203.81
2023-01-19T06:23:35.174Z,97210.25
2023-01-19T06:26:01.927Z,97210.25
2023-01-19T06:28:28.273Z,97214.97
2023-01-19T06:30:55.398Z,97221.63
2023-01-19T06:33:22.166Z,97223.81
2023-01-19T06:35:49.419Z,97237.69
2023-01-19T06:38:18.433Z,97239.69
2023-01-19T06:40:45.803Z,97238.94
2023-01-19T06:43:12.830Z,97252.28
2023-01-19T06:45:39.321Z,97246.59
2023-01-19T06:48:06.172Z,97247.84
2023-01-19T06:50:32.550Z,97261.50
2023-01-19T06:52:59.151Z,97256.16
2023-01-19T06:55:25.584Z,97261.41
2023-01-19T06:58:01.316Z,97262.50
2023-01-19T07:00:27.611Z,97264.31
2023-01-19T07:02:54.025Z,97267.72
2023-01-19T07:05:22.058Z,97267.72
2023-01-19T07:07:52.198Z,97267.50
2023-01-19T07:10:18.520Z,97264.97
2023-01-19T07:12:47.227Z,97266.53
2023-01-19T07:15:14.745Z,97272.28
2023-01-19T07:17:42.204Z,97269.56
2023-01-19T07:20:14.203Z,97272.03
2023-01-19T07:22:41.365Z,97269.81
2023-01-19T07:25:07.823Z,97279.72
2023-01-19T07:27:34.330Z,97282.44
2023-01-19T07:30:01.209Z,97286.16
2023-01-19T07:32:28.369Z,97295.06
2023-01-19T07:34:54.655Z,97299.28
2023-01-19T07:37:21.260Z,97297.78
2023-01-19T07:39:47.599Z,97296.56
2023-01-19T07:42:13.963Z,97289.91
2023-01-19T07:44:40.224Z,97281.22
2023-01-19T07:47:07.559Z,97291.66
2023-01-19T07:49:33.872Z,97293.13
2023-01-19T07:52:00.171Z,97296.38
2023-01-19T07:54:26.501Z,97298.38
2023-01-19T07:56:55.692Z,97299.13
2023-01-19T07:59:22.076Z,97307.03
2023-01-19T08:01:48.710Z,97303.53
2023-01-19T08:04:15.018Z,97303.50
2023-01-19T08:06:44.836Z,97290.47
2023-01-19T08:09:11.942Z,97300.94
2023-01-19T08:11:38.407Z,97301.00
2023-01-19T08:14:06.949Z,97308.44
2023-01-19T08:16:34.334Z,97310.00
2023-01-19T08:19:00.628Z,97303.72
2023-01-19T08:21:27.660Z,97309.25
2023-01-19T08:23:54.777Z,97314.25
2023-01-19T08:26:27.823Z,97317.91
2023-01-19T08:28:55.483Z,97322.06
2023-01-19T08:31:24.586Z,97316.63
2023-01-19T08:33:51.659Z,97317.50
2023-01-19T08:36:25.436Z,97313.03
2023-01-19T08:38:51.926Z,97318.00
2023-01-19T08:41:18.388Z,97313.84
2023-01-19T08:43:45.543Z,97299.47
2023-01-19T08:46:12.430Z,97312.66
2023-01-19T08:48:40.032Z,97314.00
2023-01-19T08:51:10.052Z,97310.59
2023-01-19T08:53:36.778Z,97313.53
2023-01-19T08:56:03.854Z,97319.06
2023-01-19T08:58:32.567Z,97321.03
2023-01-19T09:04:28.753Z,97312.56
2023-01-19T09:07:07.983Z,97315.06
2023-01-19T09:09:37.963Z,97318.84
2023-01-19T09:12:14.026Z,97321.34
2023-01-19T09:18:06.180Z,97311.72
2023-01-19T09:20:34.940Z,97313.38
2023-01-19T09:23:09.499Z,97308.63
2023-01-19T09:25:39.348Z,97307.78
2023-01-19T09:28:07.296Z,97316.63
2023-01-19T09:30:34.378Z,97312.44
2023-01-19T09:33:07.032Z,97312.22
2023-01-19T09:35:37.708Z,97314.66
2023-01-19T09:38:05.818Z,97310.31
2023-01-19T09:40:32.803Z,97318.56
2023-01-19T09:46:28.332Z,97311.22
2023-01-19T09:49:01.257Z,97314.16
2023-01-19T09:51:36.937Z,97307.19
2023-01-19T09:54:08.582Z,97313.84
2023-01-19T09:56:35.930Z,97315.50
2023-01-19T09:59:06.314Z,97319.25
2023-01-19T10:01:35.179Z,97320.06
2023-01-19T10:04:18.244Z,97311.75
2023-01-19T10:06:48.362Z,97312.84
2023-01-19T10:09:25.562Z,97308.63
2023-01-19T10:11:58.583Z,97310.06
2023-01-19T10:14:46.126Z,97308.97
2023-01-19T10:17:19.635Z,97310.25
2023-01-19T10:19:52.055Z,97302.50
2023-01-19T10:22:32.684Z,97306.06
2023-01-19T10:25:08.295Z,97314.56
2023-01-19T10:27:39.121Z,97300.94
2023-01-19T10:30:07.900Z,97299.47
2023-01-19T10:32:36.739Z,97308.28
2023-01-19T10:35:36.767Z,97304.09
2023-01-19T10:38:05.367Z,97298.94
2023-01-19T10:40:58.994Z,97300.56
2023-01-19T10:43:35.160Z,97288.88
2023-01-19T10:46:14.660Z,97293.16
2023-01-19T10:48:42.311Z,97292.66
2023-01-19T10:51:10.113Z,97290.47
2023-01-19T10:53:38.183Z,97280.66
2023-01-19T10:56:17.768Z,97283.72
2023-01-19T10:58:44.189Z,97286.13
2023-01-19T11:01:15.301Z,97297.47
2023-01-19T11:03:41.904Z,97299.78
2023-01-19T11:06:15.411Z,97306.47
2023-01-19T11:08:42.642Z,97302.50
2023-01-19T11:11:09.316Z,97299.38
2023-01-19T11:13:36.093Z,97304.88
2023-01-19T11:16:06.552Z,97307.59
2023-01-19T11:18:34.442Z,97303.44
2023-01-19T11:21:09.253Z,97302.13
2023-01-19T11:23:41.970Z,97301.59
2023-01-19T11:26:18.393Z,97300.06
2023-01-19T11:28:48.647Z,97300.84
2023-01-19T11:31:15.134Z,97299.41
2023-01-19T11:33:49.782Z,97303.75
2023-01-19T11:36:21.582Z,97309.91
2023-01-19T11:38:50.555Z,97308.97
2023-01-19T11:41:21.556Z,97302.41
2023-01-19T11:43:50.182Z,97306.56
2023-01-19T11:46:17.547Z,97306.91
2023-01-19T11:48:56.568Z,97311.22
2023-01-19T11:51:23.432Z,97308.78
2023-01-19T11:53:51.989Z,97300.03
2023-01-19T11:56:20.589Z,97304.16
2023-01-19T11:58:47.414Z,97302.94
2023-01-19T12:01:34.224Z,97304.25
2023-01-19T12:04:06.802Z,97296.94
2023-01-19T12:06:35.510Z,97300.47
2023-01-19T12:09:05.100Z,97293.75
2023-01-19T12:11:34.661Z,97295.09
2023-01-19T12:14:01.341Z,97298.34
2023-01-19T12:16:32.904Z,97296.47
2023-01-19T12:19:10.916Z,97298.25
2023-01-19T12:21:37.737Z,97307.94
2023-01-19T12:24:11.951Z,97316.19
2023-01-19T12:26:43.831Z,97307.91
2023-01-19T12:29:15.286Z,97304.97
2023-01-19T12:31:43.088Z,97305.72
2023-01-19T12:34:31.222Z,97300.28
2023-01-19T12:37:02.801Z,97297.78
2023-01-19T12:39:29.351Z,97305.09
2023-01-19T12:42:06.275Z,97301.28
2023-01-19T12:44:34.373Z,97296.56
2023-01-19T12:47:15.811Z,97299.19
2023-01-19T12:49:44.032Z,97294.66
2023-01-19T12:52:19.668Z,97290.06
2023-01-19T12:55:09.175Z,97294.06
2023-01-19T12:57:35.514Z,97290.41
2023-01-19T13:00:04.217Z,97297.03
2023-01-19T13:02:33.563Z,97284.09
2023-01-19T13:05:18.081Z,97282.19
2023-01-19T13:08:02.862Z,97289.84
2023-01-19T13:10:47.775Z,97276.84
2023-01-19T13:13:29.345Z,97275.69
2023-01-19T13:15:56.535Z,97274.34
2023-01-19T13:18:22.786Z,97272.00
2023-01-19T13:20:52.988Z,97274.66
2023-01-19T13:23:21.853Z,97271.09
2023-01-19T13:25:53.380Z,97272.28
2023-01-19T13:28:24.088Z,97267.56
2023-01-19T13:30:55.538Z,97260.34
2023-01-19T13:33:23.394Z,97273.56
2023-01-19T13:35:51.572Z,97270.94
2023-01-19T13:38:18.576Z,97259.75
2023-01-19T13:40:45.630Z,97264.75
2023-01-19T13:43:17.289Z,97268.25
2023-01-19T13:45:49.568Z,97268.56
2023-01-19T13:48:19.120Z,97266.22
2023-01-19T13:50:56.620Z,97272.53
2023-01-19T13:53:24.212Z,97270.47
2023-01-19T13:56:16.470Z,97271.78
2023-01-19T13:58:42.834Z,97272.25
2023-01-19T14:01:22.948Z,97276.25
2023-01-19T14:03:52.389Z,97277.75
2023-01-19T14:06:23.154Z,97284.78
2023-01-19T14:09:05.341Z,97284.31
2023-01-19T14:11:31.637Z,97287.69
2023-01-19T14:13:57.915Z,97288.69
2023-01-19T14:16:25.078Z,97282.22
2023-01-19T14:19:02.204Z,97290.00
2023-01-19T14:21:37.720Z,97294.28
2023-01-19T14:24:08.014Z,97293.41
2023-01-19T14:26:37.015Z,97297.38
2023-01-19T14:29:15.517Z,97293.84
2023-01-19T14:31:43.252Z,97287.34
2023-01-19T14:34:28.487Z,97292.63
2023-01-19T14:36:54.948Z,97294.56
2023-01-19T14:39:23.343Z,97298.69
2023-01-19T14:41:52.615Z,97294.72
2023-01-19T14:44:20.118Z,97287.78
2023-01-19T14:46:47.914Z,97286.88
2023-01-19T14:49:19.052Z,97293.09
2023-01-19T14:51:45.725Z,97291.31
2023-01-19T14:54:16.046Z,97287.91
2023-01-19T14:56:42.347Z,97296.59
2023-01-19T14:59:09.783Z,97300.28
2023-01-19T15:01:36.404Z,97293.19
2023-01-19T15:04:03.472Z,97293.47
2023-01-19T15:06:29.794Z,97301.53
2023-01-19T15:08:56.220Z,97305.06
2023-01-19T15:11:24.389Z,97306.22
2023-01-19T15:13:51.298Z,97301.41
2023-01-19T15:16:18.345Z,97308.53
2023-01-19T15:18:44.757Z,97304.88
2023-01-19T15:21:14.073Z,97304.53
2023-01-19T15:23:41.105Z,97310.00
2023-01-19T15:26:07.770Z,97318.25
2023-01-19T15:28:34.081Z,97312.03
2023-01-19T15:31:00.405Z,97324.53
2023-01-19T15:33:28.040Z,97323.91
2023-01-19T15:35:54.350Z,97329.13
2023-01-19T15:38:20.795Z,97331.03
2023-01-19T15:40:51.177Z,97335.06
2023-01-19T15:43:17.911Z,97342.75
2023-01-19T15:45:48.382Z,97338.28
2023-01-19T15:48:14.749Z,97351.91
2023-01-19T15:50:42.330Z,97345.91
2023-01-19T15:53:15.707Z,97350.97
2023-01-19T15:55:42.269Z,97351.34
2023-01-19T15:58:08.622Z,97347.34
2023-01-19T16:00:35.012Z,97358.78
2023-01-19T16:03:02.497Z,97348.06
2023-01-19T16:05:41.770Z,97352.03
2023-01-19T16:08:08.867Z,97360.00
2023-01-19T16:10:35.257Z,97353.84
2023-01-19T16:13:01.554Z,97360.78
2023-01-19T16:15:27.920Z,97363.44
2023-01-19T16:17:54.216Z,97357.44
2023-01-19T16:20:20.493Z,97360.50
2023-01-19T16:22:46.824Z,97359.94
2023-01-19T16:25:13.115Z,97365.84
2023-01-19T16:27:39.477Z,97362.59
2023-01-19T16:30:06.119Z,97380.00
2023-01-19T16:32:33.040Z,97377.22
2023-01-19T16:34:59.507Z,97375.13
2023-01-19T16:37:27.996Z,97381.50
2023-01-19T16:39:54.501Z,97384.25
2023-01-19T16:42:20.839Z,97394.25
2023-01-19T16:44:47.180Z,97392.69
2023-01-19T16:47:13.546Z,97389.66
2023-01-19T16:49:39.917Z,97385.69
2023-01-19T16:52:07.183Z,97394.09
2023-01-19T16:54:33.759Z,97396.78
2023-01-19T16:57:00.193Z,97403.69
2023-01-19T16:59:27.192Z,97406.50
2023-01-19T17:01:53.662Z,97400.56
2023-01-19T17:04:20.309Z,97406.50
2023-01-19T17:06:46.762Z,97407.25
2023-01-19T17:09:13.640Z,97403.75
2023-01-19T17:11:40.419Z,97409.63
2023-01-19T17:14:08.315Z,97407.41
2023-01-19T17:16:35.666Z,97408.91
2023-01-19T17:19:03.508Z,97410.38
2023-01-19T17:21:30.240Z,97411.28
2023-01-19T17:23:57.399Z,97416.00
2023-01-19T17:26:25.684Z,97413.94
2023-01-19T17:28:52.035Z,97418.66
2023-01-19T17:31:19.717Z,97418.09
2023-01-19T17:33:47.223Z,97423.66
2023-01-19T17:36:14.867Z,97420.16
2023-01-19T17:38:43.964Z,97426.91
2023-01-19T17:41:17.548Z,97422.56
2023-01-19T17:43:44.160Z,97419.75
2023-01-19T17:46:10.855Z,97427.06
2023-01-19T17:48:37.459Z,97427.06
2023-01-19T17:51:08.256Z,97429.78
2023-01-19T17:53:36.260Z,97430.97
2023-01-19T17:56:04.032Z,97432.34
2023-01-19T17:58:31.442Z,97426.56
2023-01-19T18:00:58.187Z,97430.13
2023-01-19T18:03:25.143Z,97427.81
2023-01-19T18:05:55.041Z,97430.97
2023-01-19T18:08:21.667Z,97424.84
2023-01-19T18:10:54.674Z,97423.09
2023-01-19T18:13:21.241Z,97430.69
2023-01-19T18:15:47.579Z,97435.41
2023-01-19T18:18:13.900Z,97440.59
2023-01-19T18:20:40.695Z,97432.28
2023-01-19T18:23:07.177Z,97441.69
2023-01-19T18:25:33.461Z,97437.34
2023-01-19T18:27:59.813Z,97444.38
2023-01-19T18:30:26.277Z,97443.53
2023-01-19T18:32:52.621Z,97447.31
2023-01-19T18:35:19.010Z,97442.97
2023-01-19T18:37:45.464Z,97450.56
2023-01-19T18:40:12.299Z,97456.69
2023-01-19T18:42:38.736Z,97451.25
2023-01-19T18:45:05.280Z,97459.00
2023-01-19T18:47:33.021Z,97457.50
2023-01-19T18:49:59.429Z,97458.00
2023-01-19T18:52:26.025Z,97463.09
2023-01-19T18:54:52.574Z,97462.97
2023-01-19T18:57:18.898Z,97471.97
2023-01-19T18:59:46.169Z,97470.75
2023-01-19T19:02:13.333Z,97472.34
2023-01-19T19:04:40.167Z,97476.00
2023-01-19T19:07:06.489Z,97472.03
2023-01-19T19:09:32.810Z,97475.53
2023-01-19T19:11:59.150Z,97472.28
2023-01-19T19:14:25.455Z,97476.25
2023-01-19T19:16:51.787Z,97469.34
2023-01-19T19:19:18.482Z,97476.84
2023-01-19T19:21:44.967Z,97475.19
2023-01-19T19:24:13.383Z,97477.84
2023-01-19T19:26:40.067Z,97479.13
2023-01-19T19:29:06.352Z,97482.13
2023-01-19T19:31:32.678Z,97482.66
2023-01-19T19:33:59.351Z,97479.41
2023-01-19T19:36:26.682Z,97492.34
2023-01-19T19:38:53.063Z,97486.25
2023-01-19T19:41:21.204Z,97483.00
2023-01-19T19:43:47.640Z,97485.81
2023-01-19T19:46:15.316Z,97486.72
2023-01-19T19:48:42.077Z,97487.38
2023-01-19T19:51:18.110Z,97489.97
2023-01-19T19:53:45.507Z,97500.97
2023-01-19T19:56:15.265Z,97489.34
2023-01-19T19:58:42.324Z,97492.94
2023-01-19T20:01:08.826Z,97488.38
2023-01-19T20:03:35.173Z,97497.38
2023-01-19T20:06:05.658Z,97508.91
2023-01-19T20:08:32.071Z,97504.34
2023-01-19T20:11:08.703Z,97504.50
2023-01-19T20:13:35.724Z,97500.81
2023-01-19T20:16:05.556Z,97504.94
2023-01-19T20:18:32.296Z,97507.88
2023-01-19T20:20:58.898Z,97511.25
2023-01-19T20:23:25.233Z,97516.34
2023-01-19T20:25:51.772Z,97524.28
2023-01-19T20:28:18.177Z,97526.22
2023-01-19T20:30:44.517Z,97523.94
2023-01-19T20:33:10.809Z,97523.94
2023-01-19T20:35:37.084Z,97531.41
2023-01-19T20:38:03.443Z,97523.72
2023-01-19T20:40:29.755Z,97524.94
2023-01-19T20:42:56.063Z,97527.00
2023-01-19T20:45:22.552Z,97522.56
2023-01-19T20:47:48.947Z,97516.34
2023-01-19T20:50:15.247Z,97530.69
2023-01-19T20:52:41.558Z,97530.13
2023-01-19T20:55:08.791Z,97529.41
2023-01-19T20:57:35.107Z,97535.78
2023-01-19T21:00:01.409Z,97532.81
2023-01-19T21:02:28.603Z,97530.88
2023-01-19T21:04:55.054Z,97537.81
2023-01-19T21:07:21.430Z,97537.06
2023-01-19T21:09:47.693Z,97533.03
2023-01-19T21:12:15.957Z,97544.28
2023-01-19T21:14:43.859Z,97548.47
2023-01-19T21:17:10.212Z,97550.22
2023-01-19T21:19:36.578Z,97563.47
2023-01-19T21:22:02.946Z,97556.34
2023-01-19T21:24:29.496Z,97563.84
2023-01-19T21:26:55.798Z,97562.91
2023-01-19T21:29:22.116Z,97569.38
2023-01-19T21:31:48.422Z,97571.34
2023-01-19T21:34:14.720Z,97564.19
2023-01-19T21:36:41.273Z,97571.59
2023-01-19T21:39:08.129Z,97573.16
2023-01-19T21:41:35.837Z,97576.41
2023-01-19T21:44:02.158Z,97576.41
2023-01-19T21:46:33.224Z,97578.63
2023-01-19T21:49:00.742Z,97579.97
2023-01-19T21:51:28.354Z,97583.09
2023-01-19T21:53:59.580Z,97579.06
2023-01-19T21:56:29.629Z,97575.66
2023-01-19T21:58:56.703Z,97576.88
2023-01-19T22:01:23.741Z,97582.72
2023-01-19T22:03:53.847Z,97578.03
2023-01-19T22:06:20.711Z,97589.47
2023-01-19T22:08:47.176Z,97586.34
2023-01-19T22:11:14.420Z,97591.06
2023-01-19T22:13:40.941Z,97595.44
2023-01-19T22:16:11.427Z,97596.72
2023-01-19T22:18:38.303Z,97593.66
2023-01-19T22:21:12.154Z,97591.97
2023-01-19T22:23:39.720Z,97583.75
2023-01-19T22:26:06.409Z,97595.22
2023-01-19T22:28:33.031Z,97601.22
2023-01-19T22:31:07.188Z,97606.22
2023-01-19T22:33:33.537Z,97601.47
2023-01-19T22:36:17.016Z,97603.69
2023-01-19T22:38:43.678Z,97604.44
2023-01-19T22:41:14.149Z,97610.44
2023-01-19T22:43:40.479Z,97606.19
2023-01-19T22:46:08.727Z,97601.38
2023-01-19T22:48:35.257Z,97606.09
2023-01-19T22:51:01.553Z,97607.59
2023-01-19T22:53:27.893Z,97602.88
2023-01-19T22:55:54.170Z,97603.59
2023-01-19T22:58:21.553Z,97601.66
2023-01-19T23:00:47.835Z,97595.94
2023-01-19T23:03:14.146Z,97597.88
2023-01-19T23:05:40.438Z,97593.34
2023-01-19T23:08:06.774Z,97586.38
2023-01-19T23:10:34.842Z,97598.34
2023-01-19T23:13:01.133Z,97594.00
2023-01-19T23:15:27.450Z,97597.72
2023-01-19T23:17:53.822Z,97589.56
2023-01-19T23:20:20.219Z,97594.91
2023-01-19T23:22:46.539Z,97596.66
2023-01-19T23:25:13.068Z,97598.88
2023-01-19T23:27:39.382Z,97590.84
2023-01-19T23:30:05.949Z,97593.63
2023-01-19T23:32:32.464Z,97592.69
2023-01-19T23:34:58.762Z,97590.94
2023-01-19T23:37:25.067Z,97593.44
2023-01-19T23:39:51.319Z,97592.41
2023-01-19T23:42:17.628Z,97601.59
2023-01-19T23:44:44.015Z,97590.38
2023-01-19T23:47:10.304Z,97595.63
2023-01-19T23:49:36.603Z,97596.38
2023-01-19T23:52:02.918Z,97592.88
2023-01-19T23:54:29.235Z,97594.84
2023-01-19T23:56:55.533Z,97595.56
2023-01-19T23:59:21.813Z,97590.56
